WetterOnline ( https://www.wetteronline.de )

Wetter aktuell Heilbad Heiligenstadt

Aktuelles Wetter: Leinefelde (356m)

6-stündlich | Neueste Meldungen
Ortszeit Temperatur Wetter
Mo, 26.09. 20:00 10.4° C bedeckt
Mo, 26.09. 14:00 13.9° C leicht bewölkt
Mo, 26.09. 8:00 8.2° C bedeckt
Mo, 26.09. 2:00 8.5° C wolkenlos
So, 25.09. 20:00 11.4° C bedeckt
So, 25.09. 14:00 12.0° C bedeckt
So, 25.09. 8:00 10.7° C bedeckt
So, 25.09. 2:00 10.6° C Regen
Ortszeit Temperatur Wetter
Mo, 26.09. 21:30 10.9° C bedeckt
Mo, 26.09. 21:20 10.9° C bedeckt
Mo, 26.09. 21:10 10.8° C bedeckt
Mo, 26.09. 21:00 10.9° C bewölkt
Mo, 26.09. 20:50 10.9° C bewölkt
Mo, 26.09. 20:40 10.8° C bedeckt
Mo, 26.09. 20:30 10.8° C bewölkt
Mo, 26.09. 20:00 10.4° C bedeckt
Mo, 26.09. 19:30 10.4° C bedeckt
Mo, 26.09. 19:00 10.6° C Sprühregen
Mo, 26.09. 18:30 10.4° C bedeckt
Ortszeit Relative Feuchte Sichtweite
Mo, 26.09. 20:00 75% >70 km
Mo, 26.09. 14:00 53% >70 km
Mo, 26.09. 8:00 86% 40 km
Mo, 26.09. 2:00 87% 50 km
So, 25.09. 20:00 84% 40 km
So, 25.09. 14:00 80% 35 km
So, 25.09. 8:00 94% 9 km
So, 25.09. 2:00 95% 7 km
Ortszeit Relative Feuchte Sichtweite
Mo, 26.09. 21:30 72% >70 km
Mo, 26.09. 21:20 72% -
Mo, 26.09. 21:10 72% -
Mo, 26.09. 21:00 71% >70 km
Mo, 26.09. 20:50 71% -
Mo, 26.09. 20:40 72% -
Mo, 26.09. 20:30 72% 60 km
Mo, 26.09. 20:00 75% >70 km
Mo, 26.09. 19:30 77% 65 km
Mo, 26.09. 19:00 76% 60 km
Mo, 26.09. 18:30 77% 60 km
Ortszeit Niederschlagsmenge Niederschlagsart
Mo, 26.09. 20:00 0.1 l/m2 in 12 Std. Regen
Mo, 26.09. 14:00 0.0 l/m2 in 6 Std. -
Mo, 26.09. 8:00 0.0 l/m2 in 12 Std. -
Mo, 26.09. 2:00 0.0 l/m2 in 6 Std. -
So, 25.09. 20:00 0.1 l/m2 in 12 Std. Regen
So, 25.09. 14:00 0.1 l/m2 in 6 Std. Regen
So, 25.09. 8:00 0.5 l/m2 in 12 Std. -
So, 25.09. 2:00 0.5 l/m2 in 6 Std. Regen
Ortszeit Niederschlagsmenge Niederschlagsart
Mo, 26.09. 21:30 0.0 l/m2 in 1 Std. -
Mo, 26.09. 21:20 keine Meldung -
Mo, 26.09. 21:10 keine Meldung -
Mo, 26.09. 21:00 0.0 l/m2 in 1 Std. -
Mo, 26.09. 20:50 keine Meldung -
Mo, 26.09. 20:40 keine Meldung -
Mo, 26.09. 20:30 0.0 l/m2 in 1 Std. -
Mo, 26.09. 20:00 <0.05 l/m2 in 1 Std. Regen
Mo, 26.09. 19:30 <0.05 l/m2 in 1 Std. Schneeregen
Mo, 26.09. 19:00 <0.05 l/m2 in 1 Std. Regen
Mo, 26.09. 18:30 <0.05 l/m2 in 1 Std. Schneeregen
Ortszeit Stärke Spitze Richtung
km/h Bft. km/h Grad Sektor
Mo, 26.09. 20:00 13 3 44 200° S
Mo, 26.09. 14:00 25 4 47 210° SW
Mo, 26.09. 8:00 2 1 17 140° SO
Mo, 26.09. 2:00 11 2 19 280° W
So, 25.09. 20:00 7 2 24 270° W
So, 25.09. 14:00 13 3 20 320° NW
So, 25.09. 8:00 6 1 13 330° NW
So, 25.09. 2:00 6 1 19 230° SW
Ortszeit Stärke Spitze Richtung
km/h Bft. km/h Grad Sektor
Mo, 26.09. 21:30 14 3 25 200° S
Mo, 26.09. 21:20 14 3 - 200° S
Mo, 26.09. 21:10 14 3 - 200° S
Mo, 26.09. 21:00 15 3 30 200° S
Mo, 26.09. 20:50 15 3 - 200° S
Mo, 26.09. 20:40 14 3 - 200° S
Mo, 26.09. 20:30 17 3 30 190° S
Mo, 26.09. 20:00 13 3 26 200° S
Mo, 26.09. 19:30 14 3 25 210° SW
Mo, 26.09. 19:00 15 3 30 210° SW
Mo, 26.09. 18:30 14 3 29 210° SW
Ortszeit Untergrenze Bedeckung Gattung
total tief tief mittel hoch
Mo, 26.09. 20:00 1140 m 8/8 8/8 - - -
Mo, 26.09. 14:00 1470 m 3/8 1/8 - - -
Mo, 26.09. 8:00 1500 m 8/8 8/8 - - -
Mo, 26.09. 2:00 - 0/8 0/8 - - -
So, 25.09. 20:00 1800 m 8/8 8/8 - - -
So, 25.09. 14:00 390 m 8/8 8/8 - - -
So, 25.09. 8:00 240 m 8/8 8/8 - - -
So, 25.09. 2:00 1500 m 8/8 8/8 - - -
Ortszeit Bedeckungsgrad in Achtel und Wolkenuntergrenze
Mo, 26.09. 21:30 8(990m)
Mo, 26.09. 21:20 8(990m)
Mo, 26.09. 21:10 8
Mo, 26.09. 21:00 7(1050m)
Mo, 26.09. 20:50 7(1050m)
Mo, 26.09. 20:40 8
Mo, 26.09. 20:30 7(1050m)
Mo, 26.09. 20:00 5(1140m) 7(1500m) 8(2700m)
Mo, 26.09. 19:30 3(1320m) 8(1800m) 8(2700m)
Mo, 26.09. 19:00 1(1440m) 8(2100m) 8(2700m)
Mo, 26.09. 18:30 1(630m) 7(1500m) 8(2400m)
Ortszeit Luftdruck NN (hPa) Tendenz (hPa in 3 Std.)
Mo, 26.09. 20:00 1000 - 1,7
Mo, 26.09. 14:00 1003 - 1,7
Mo, 26.09. 8:00 1007 - 1,7
Mo, 26.09. 2:00 1011 - 0,9
So, 25.09. 20:00 1011 - 0,4
So, 25.09. 14:00 1013 - 0,2
So, 25.09. 8:00 1013 0,0
So, 25.09. 2:00 1014 0,0
Ortszeit Luftdruck NN (hPa) Tendenz (hPa in 3 Std.)
Mo, 26.09. 21:30 999 - 1,8
Mo, 26.09. 21:20 999 keine Meldung
Mo, 26.09. 21:10 999 keine Meldung
Mo, 26.09. 21:00 999 - 1,9
Mo, 26.09. 20:50 999 keine Meldung
Mo, 26.09. 20:40 999 keine Meldung
Mo, 26.09. 20:30 1000 - 1,8
Mo, 26.09. 20:00 1000 - 1,7
Mo, 26.09. 19:30 1000 - 1,6
Mo, 26.09. 19:00 1001 - 1,5
Mo, 26.09. 18:30 1001 - 1,3
Ortszeit Schneehöhe (cm)
Mo, 26.09. 20:00 0
Mo, 26.09. 14:00 0
Mo, 26.09. 8:00 0
Mo, 26.09. 2:00 0
So, 25.09. 20:00 0
So, 25.09. 14:00 0
So, 25.09. 8:00 0
So, 25.09. 2:00 0
Ortszeit Schneehöhe (cm)
Mo, 26.09. 21:30 0
Mo, 26.09. 21:20 0
Mo, 26.09. 21:10 0
Mo, 26.09. 21:00 0
Mo, 26.09. 20:50 0
Mo, 26.09. 20:40 0
Mo, 26.09. 20:30 0
Mo, 26.09. 20:00 0
Mo, 26.09. 19:30 0
Mo, 26.09. 19:00 0
Mo, 26.09. 18:30 0
Link zu dieser Seite / Seite empfehlen

Das Wetter in ...